createdAt,value
2018-05-26T00:02:13.917Z,3.70
2018-05-26T00:04:42.153Z,3.77
2018-05-26T00:07:11.162Z,3.90
2018-05-26T00:09:40.137Z,3.73
2018-05-26T00:12:09.150Z,3.80
2018-05-26T00:14:37.433Z,5.43
2018-05-26T00:17:05.679Z,5.00
2018-05-26T00:19:33.916Z,5.20
2018-05-26T00:22:02.179Z,5.10
2018-05-26T00:24:30.418Z,4.73
2018-05-26T00:26:59.448Z,4.87
2018-05-26T00:29:27.705Z,5.33
2018-05-26T00:31:55.975Z,5.37
2018-05-26T00:34:24.223Z,4.97
2018-05-26T00:36:52.446Z,4.17
2018-05-26T00:39:21.471Z,4.20
2018-05-26T00:41:49.755Z,4.43
2018-05-26T00:44:17.996Z,4.10
2018-05-26T00:46:46.213Z,4.47
2018-05-26T00:49:15.255Z,4.00
2018-05-26T00:51:44.267Z,4.33
2018-05-26T00:54:13.272Z,4.33
2018-05-26T00:56:42.292Z,4.87
2018-05-26T00:59:11.290Z,4.40
2018-05-26T01:01:40.311Z,4.20
2018-05-26T01:04:08.543Z,4.50
2018-05-26T01:06:36.807Z,4.43
2018-05-26T01:09:05.041Z,5.10
2018-05-26T01:11:33.297Z,4.27
2018-05-26T01:14:01.548Z,3.97
2018-05-26T01:16:30.567Z,4.30
2018-05-26T01:18:58.801Z,4.10
2018-05-26T01:21:27.070Z,4.20
2018-05-26T01:23:55.319Z,4.17
2018-05-26T01:26:23.595Z,4.40
2018-05-26T01:28:52.610Z,4.17
2018-05-26T01:31:21.626Z,4.03
2018-05-26T01:33:49.863Z,4.77
2018-05-26T01:36:18.114Z,4.43
2018-05-26T01:38:46.374Z,4.37
2018-05-26T01:41:15.387Z,3.93
2018-05-26T01:43:43.635Z,4.73
2018-05-26T01:46:11.882Z,4.37
2018-05-26T01:48:40.138Z,4.50
2018-05-26T01:51:09.113Z,4.30
2018-05-26T01:53:38.167Z,4.17
2018-05-26T01:56:06.416Z,4.27
2018-05-26T01:58:34.659Z,4.00
2018-05-26T02:01:02.903Z,4.33
2018-05-26T02:03:32.141Z,3.90
2018-05-26T02:06:01.157Z,4.77
2018-05-26T02:08:30.174Z,4.33
2018-05-26T02:10:58.415Z,4.37
2018-05-26T02:13:26.684Z,4.30
2018-05-26T02:15:54.924Z,3.90
2018-05-26T02:18:23.156Z,4.40
2018-05-26T02:20:52.157Z,4.50
2018-05-26T02:23:20.520Z,4.73
2018-05-26T02:25:48.728Z,4.53
2018-05-26T02:28:17.024Z,4.47
2018-05-26T02:30:45.260Z,4.27
2018-05-26T02:33:14.279Z,4.17
2018-05-26T02:35:42.532Z,4.53
2018-05-26T02:38:10.788Z,4.80
2018-05-26T02:40:39.019Z,4.03
2018-05-26T02:43:07.276Z,4.63
2018-05-26T02:45:35.474Z,4.10
2018-05-26T02:48:04.511Z,4.70
2018-05-26T02:50:33.535Z,4.53
2018-05-26T02:53:02.552Z,4.07
2018-05-26T02:55:30.805Z,4.80
2018-05-26T02:57:59.034Z,4.63
2018-05-26T03:00:27.301Z,4.80
2018-05-26T03:02:56.303Z,4.90
2018-05-26T03:05:30.871Z,5.00
2018-05-26T03:08:04.669Z,4.60
2018-05-26T03:10:39.184Z,4.70
2018-05-26T03:13:13.044Z,4.90
2018-05-26T03:15:41.264Z,4.73
2018-05-26T03:18:10.280Z,4.40
2018-05-26T03:20:39.919Z,4.90
2018-05-26T03:23:08.184Z,4.50
2018-05-26T03:25:36.475Z,4.47
2018-05-26T03:28:04.713Z,5.17
2018-05-26T03:30:32.967Z,5.10
2018-05-26T03:33:01.204Z,5.10
2018-05-26T03:35:29.479Z,4.93
2018-05-26T03:37:57.712Z,5.37
2018-05-26T03:40:25.974Z,4.73
2018-05-26T03:42:54.210Z,5.13
2018-05-26T03:45:22.461Z,5.10
2018-05-26T03:47:50.699Z,4.43
2018-05-26T03:50:19.721Z,4.63
2018-05-26T03:52:47.973Z,5.07
2018-05-26T03:55:42.999Z,4.73
2018-05-26T03:58:28.906Z,5.27
2018-05-26T04:00:57.168Z,5.07
2018-05-26T04:03:26.799Z,5.23
2018-05-26T04:05:55.144Z,5.53
2018-05-26T04:08:23.310Z,5.23
2018-05-26T04:10:52.742Z,4.67
2018-05-26T04:13:21.008Z,4.83
2018-05-26T04:15:50.028Z,5.20
2018-05-26T04:18:19.035Z,5.20
2018-05-26T04:20:47.311Z,4.97
2018-05-26T04:23:16.314Z,5.43
2018-05-26T04:25:45.350Z,4.90
2018-05-26T04:28:13.644Z,5.90
2018-05-26T04:30:42.675Z,5.30
2018-05-26T04:33:10.896Z,5.53
2018-05-26T04:35:39.160Z,5.03
2018-05-26T04:38:07.399Z,4.70
2018-05-26T04:40:37.006Z,5.43
2018-05-26T04:43:06.022Z,5.43
2018-05-26T04:45:35.035Z,5.67
2018-05-26T04:48:04.778Z,5.63
2018-05-26T04:50:33.031Z,5.07
2018-05-26T04:53:02.031Z,5.20
2018-05-26T04:55:30.287Z,5.23
2018-05-26T04:57:58.540Z,5.00
2018-05-26T05:00:26.811Z,5.17
2018-05-26T05:02:55.822Z,4.93
2018-05-26T05:05:24.840Z,5.03
2018-05-26T05:07:53.087Z,5.00
2018-05-26T05:10:21.336Z,4.87
2018-05-26T05:12:49.535Z,4.90
2018-05-26T05:15:17.823Z,5.43
2018-05-26T05:17:46.063Z,4.97
2018-05-26T05:20:15.111Z,4.90
2018-05-26T05:22:43.351Z,5.10
2018-05-26T05:25:12.375Z,5.13
2018-05-26T05:27:41.969Z,4.80
2018-05-26T05:30:10.326Z,4.93
2018-05-26T05:32:38.549Z,4.90
2018-05-26T05:35:06.774Z,5.53
2018-05-26T05:37:35.042Z,4.90
2018-05-26T05:40:03.275Z,5.37
2018-05-26T05:42:31.524Z,5.40
2018-05-26T05:45:00.532Z,5.00
2018-05-26T05:47:29.551Z,5.10
2018-05-26T05:49:57.792Z,5.00
2018-05-26T05:52:26.052Z,5.00
2018-05-26T05:54:54.314Z,5.07
2018-05-26T05:57:22.555Z,5.43
2018-05-26T05:59:50.836Z,4.93
2018-05-26T06:02:19.088Z,4.77
2018-05-26T06:04:47.309Z,4.90
2018-05-26T06:07:15.548Z,5.13
2018-05-26T06:09:43.774Z,4.97
2018-05-26T06:12:12.154Z,5.33
2018-05-26T06:14:40.570Z,4.70
2018-05-26T06:17:08.959Z,5.00
2018-05-26T06:19:37.439Z,5.40
2018-05-26T06:22:06.794Z,5.60
2018-05-26T06:24:35.030Z,5.67
2018-05-26T06:27:03.301Z,5.90
2018-05-26T06:29:31.541Z,5.87
2018-05-26T06:32:00.562Z,6.07
2018-05-26T06:34:28.803Z,6.37
2018-05-26T06:36:57.104Z,6.70
2018-05-26T06:39:25.343Z,5.90
2018-05-26T06:41:55.127Z,5.93
2018-05-26T06:44:23.333Z,5.67
2018-05-26T06:46:51.661Z,6.17
2018-05-26T06:49:20.679Z,6.87
2018-05-26T06:51:48.910Z,6.43
2018-05-26T06:54:17.141Z,6.03
2018-05-26T06:56:46.194Z,7.00
2018-05-26T06:59:14.458Z,6.50
2018-05-26T07:01:42.710Z,6.50
2018-05-26T07:04:11.697Z,6.13
2018-05-26T07:06:40.750Z,5.23
2018-05-26T07:09:08.998Z,5.67
2018-05-26T07:11:37.205Z,5.70
2018-05-26T07:14:05.497Z,5.53
2018-05-26T07:16:33.736Z,5.23
2018-05-26T07:19:01.995Z,5.60
2018-05-26T07:21:30.267Z,5.20
2018-05-26T07:23:59.318Z,6.00
2018-05-26T07:26:27.559Z,5.53
2018-05-26T07:28:56.600Z,5.57
2018-05-26T07:31:24.816Z,5.50
2018-05-26T07:33:53.878Z,5.90
2018-05-26T07:36:22.131Z,5.37
2018-05-26T07:38:50.380Z,5.20
2018-05-26T07:41:18.618Z,5.17
2018-05-26T07:43:47.646Z,5.53
2018-05-26T07:46:15.889Z,5.57
2018-05-26T07:48:44.131Z,5.40
2018-05-26T07:51:12.364Z,5.47
2018-05-26T07:53:40.607Z,5.53
2018-05-26T07:56:08.838Z,5.67
2018-05-26T07:58:37.080Z,4.87
2018-05-26T08:01:05.329Z,4.67
2018-05-26T08:03:33.562Z,4.70
2018-05-26T08:06:01.800Z,4.90
2018-05-26T08:08:30.046Z,5.17
2018-05-26T08:10:58.345Z,4.53
2018-05-26T08:13:26.632Z,4.70
2018-05-26T08:15:54.861Z,4.90
2018-05-26T08:18:23.136Z,4.60
2018-05-26T08:20:51.426Z,4.30
2018-05-26T08:23:19.664Z,4.33
2018-05-26T08:25:47.926Z,4.17
2018-05-26T08:28:16.155Z,4.37
2018-05-26T08:30:44.412Z,4.60
2018-05-26T08:33:12.656Z,4.37
2018-05-26T08:35:41.691Z,3.97
2018-05-26T08:38:09.935Z,3.90
2018-05-26T08:40:38.215Z,3.77
2018-05-26T08:43:06.447Z,4.10
2018-05-26T08:45:34.722Z,3.23
2018-05-26T08:48:02.922Z,3.60
2018-05-26T08:50:31.186Z,3.90
2018-05-26T08:52:59.418Z,3.90
2018-05-26T08:55:27.690Z,4.40
2018-05-26T08:57:56.714Z,3.80
2018-05-26T09:00:24.992Z,3.77
2018-05-26T09:02:53.257Z,3.77
2018-05-26T09:05:22.872Z,3.37
2018-05-26T09:07:51.079Z,3.53
2018-05-26T09:10:20.875Z,3.30
2018-05-26T09:12:49.115Z,3.60
2018-05-26T09:15:18.140Z,3.50
2018-05-26T09:17:46.343Z,3.77
2018-05-26T09:20:14.603Z,3.43
2018-05-26T09:22:42.845Z,3.13
2018-05-26T09:25:11.225Z,3.47
2018-05-26T09:27:40.170Z,6.47
2018-05-26T09:30:08.410Z,3.50
2018-05-26T09:32:36.667Z,3.60
2018-05-26T09:35:05.671Z,3.13
2018-05-26T09:37:34.699Z,3.30
2018-05-26T09:40:02.949Z,2.80
2018-05-26T09:42:32.068Z,3.10
2018-05-26T09:45:00.315Z,3.90
2018-05-26T09:47:28.564Z,3.47
2018-05-26T09:49:57.661Z,3.40
2018-05-26T09:52:25.910Z,3.03
2018-05-26T09:54:54.146Z,3.30
2018-05-26T09:57:24.108Z,3.10
2018-05-26T09:59:53.091Z,2.90
2018-05-26T10:02:21.353Z,3.10
2018-05-26T10:04:49.599Z,3.37
2018-05-26T10:07:17.875Z,3.13
2018-05-26T10:09:46.096Z,2.90
2018-05-26T10:12:14.359Z,3.27
2018-05-26T10:14:42.603Z,3.20
2018-05-26T10:17:11.619Z,3.13
2018-05-26T10:19:40.623Z,3.20
2018-05-26T10:22:09.638Z,3.00
2018-05-26T10:24:38.643Z,3.00
2018-05-26T10:27:07.659Z,2.37
2018-05-26T10:29:35.891Z,2.43
2018-05-26T10:32:04.112Z,2.60
2018-05-26T10:34:32.394Z,2.50
2018-05-26T10:37:00.648Z,2.57
2018-05-26T10:39:28.896Z,2.30
2018-05-26T10:41:57.163Z,2.43
2018-05-26T10:44:26.132Z,2.07
2018-05-26T10:46:55.238Z,2.30
2018-05-26T10:49:23.476Z,2.30
2018-05-26T10:51:52.485Z,2.40
2018-05-26T10:54:21.504Z,2.50
2018-05-26T10:56:49.785Z,2.33
2018-05-26T10:59:18.002Z,2.17
2018-05-26T11:01:46.195Z,2.12
2018-05-26T11:04:14.556Z,2.37
2018-05-26T11:06:47.498Z,2.30
2018-05-26T11:09:15.719Z,2.57
2018-05-26T11:11:44.002Z,2.28
2018-05-26T11:14:12.262Z,1.90
2018-05-26T11:16:40.494Z,2.07
2018-05-26T11:19:09.530Z,2.40
2018-05-26T11:21:37.755Z,2.12
2018-05-26T11:24:06.247Z,2.37
2018-05-26T11:26:34.226Z,2.30
2018-05-26T11:29:03.289Z,2.37
2018-05-26T11:31:31.532Z,2.20
2018-05-26T11:33:59.791Z,1.98
2018-05-26T11:36:27.993Z,2.30
2018-05-26T11:38:57.054Z,1.90
2018-05-26T11:43:58.747Z,2.05
2018-05-26T11:46:27.771Z,2.30
2018-05-26T11:48:56.065Z,2.20
2018-05-26T11:51:24.309Z,2.40
2018-05-26T11:53:52.571Z,2.05
2018-05-26T11:56:20.820Z,2.20
2018-05-26T11:58:49.043Z,2.20
2018-05-26T12:01:17.317Z,2.50
2018-05-26T12:03:45.581Z,2.42
2018-05-26T12:06:14.575Z,2.40
2018-05-26T12:08:44.615Z,1.90
2018-05-26T12:11:13.664Z,2.37
2018-05-26T12:13:42.641Z,1.83
2018-05-26T12:16:10.891Z,2.20
2018-05-26T12:18:39.145Z,2.37
2018-05-26T12:21:07.377Z,2.40
2018-05-26T12:23:36.411Z,2.40
2018-05-26T12:26:04.696Z,2.35
2018-05-26T12:28:32.911Z,2.00
2018-05-26T12:31:02.764Z,2.20
2018-05-26T12:33:31.007Z,2.45
2018-05-26T12:35:59.306Z,2.20
2018-05-26T12:38:27.569Z,2.33
2018-05-26T12:40:56.725Z,2.20
2018-05-26T12:43:24.963Z,2.15
2018-05-26T12:45:54.003Z,2.40
2018-05-26T12:48:22.307Z,2.22
2018-05-26T12:50:50.635Z,2.42
2018-05-26T12:53:18.888Z,2.20
2018-05-26T12:55:47.171Z,2.10
2018-05-26T12:58:15.418Z,2.00
2018-05-26T13:00:44.440Z,2.45
2018-05-26T13:03:12.706Z,2.37
2018-05-26T13:05:41.751Z,2.20
2018-05-26T13:08:10.046Z,2.12
2018-05-26T13:10:38.311Z,2.25
2018-05-26T13:13:06.610Z,2.12
2018-05-26T13:15:34.916Z,2.15
2018-05-26T13:18:03.160Z,2.20
2018-05-26T13:20:32.223Z,2.35
2018-05-26T13:23:00.503Z,2.03
2018-05-26T13:25:28.787Z,1.95
2018-05-26T13:27:57.042Z,2.30
2018-05-26T13:30:26.096Z,2.10
2018-05-26T13:32:54.525Z,2.05
2018-05-26T13:35:22.846Z,2.67
2018-05-26T13:37:51.104Z,2.20
2018-05-26T13:40:19.385Z,2.13
2018-05-26T13:42:48.439Z,2.90
2018-05-26T13:45:16.728Z,2.22
2018-05-26T13:47:45.809Z,2.20
2018-05-26T13:50:14.812Z,2.17
2018-05-26T13:52:43.124Z,2.15
2018-05-26T13:55:11.384Z,2.83
2018-05-26T13:57:39.664Z,2.25
2018-05-26T14:00:07.914Z,1.90
2018-05-26T14:02:36.184Z,2.25
2018-05-26T14:05:04.451Z,2.20
2018-05-26T14:07:33.510Z,2.12
2018-05-26T14:10:01.762Z,2.53
2018-05-26T14:12:30.861Z,2.08
2018-05-26T14:14:59.876Z,2.25
2018-05-26T14:17:28.165Z,2.20
2018-05-26T14:19:56.446Z,2.35
2018-05-26T14:22:25.483Z,2.10
2018-05-26T14:24:53.742Z,1.92
2018-05-26T14:27:22.791Z,2.10
2018-05-26T14:29:51.042Z,1.70
2018-05-26T14:32:20.091Z,2.10
2018-05-26T14:34:48.380Z,2.03
2018-05-26T14:37:16.669Z,2.75
2018-05-26T14:39:44.908Z,2.40
2018-05-26T14:42:14.004Z,1.87
2018-05-26T14:44:42.211Z,2.00
2018-05-26T14:47:11.246Z,2.28
2018-05-26T14:49:39.474Z,2.10
2018-05-26T14:52:07.752Z,2.05
2018-05-26T14:54:36.000Z,1.85
2018-05-26T14:57:04.301Z,2.00
2018-05-26T14:59:32.583Z,1.83
2018-05-26T15:02:00.827Z,2.03
2018-05-26T15:04:29.145Z,2.25
2018-05-26T15:06:58.742Z,1.83
2018-05-26T15:09:27.008Z,2.03
2018-05-26T15:11:55.271Z,2.35
2018-05-26T15:14:23.552Z,2.00
2018-05-26T15:16:51.846Z,1.77
2018-05-26T15:19:20.131Z,2.23
2018-05-26T15:21:48.399Z,2.10
2018-05-26T15:24:17.440Z,2.43
2018-05-26T15:26:45.684Z,1.90
2018-05-26T15:29:14.720Z,2.07
2018-05-26T15:31:42.971Z,2.07
2018-05-26T15:34:12.006Z,1.92
2018-05-26T15:36:40.225Z,2.67
2018-05-26T15:39:08.503Z,1.90
2018-05-26T15:41:36.734Z,2.13
2018-05-26T15:44:04.998Z,1.93
2018-05-26T15:46:33.231Z,2.20
2018-05-26T15:49:02.257Z,1.83
2018-05-26T15:51:30.546Z,2.10
2018-05-26T15:53:58.796Z,2.27
2018-05-26T15:56:27.035Z,2.17
2018-05-26T15:58:55.685Z,2.33
2018-05-26T16:01:23.926Z,2.00
2018-05-26T16:03:52.183Z,2.10
2018-05-26T16:06:21.140Z,2.10
2018-05-26T16:08:50.190Z,2.00
2018-05-26T16:11:19.186Z,2.00
2018-05-26T16:13:48.214Z,2.10
2018-05-26T16:16:16.453Z,2.20
2018-05-26T16:18:44.709Z,2.30
2018-05-26T16:21:12.990Z,1.97
2018-05-26T16:23:41.228Z,2.07
2018-05-26T16:26:09.484Z,1.87
2018-05-26T16:28:37.721Z,2.00
2018-05-26T16:31:06.743Z,2.10
2018-05-26T16:33:35.709Z,2.37
2018-05-26T16:36:04.782Z,2.20
2018-05-26T16:38:33.055Z,2.53
2018-05-26T16:41:02.072Z,2.37
2018-05-26T16:43:30.315Z,2.30
2018-05-26T16:45:58.572Z,2.28
2018-05-26T16:48:26.776Z,2.20
2018-05-26T16:50:55.832Z,2.23
2018-05-26T16:53:24.087Z,2.43
2018-05-26T16:55:52.334Z,2.37
2018-05-26T16:58:20.571Z,2.60
2018-05-26T17:00:48.827Z,2.37
2018-05-26T17:03:17.076Z,2.40
2018-05-26T17:05:46.094Z,2.65
2018-05-26T17:08:14.335Z,2.72
2018-05-26T17:10:42.668Z,3.03
2018-05-26T17:13:11.671Z,2.97
2018-05-26T17:15:39.983Z,2.80
2018-05-26T17:18:09.042Z,2.70
2018-05-26T17:20:38.055Z,2.65
2018-05-26T17:23:07.050Z,2.42
2018-05-26T17:25:35.302Z,2.53
2018-05-26T17:28:03.534Z,2.65
2018-05-26T17:30:32.675Z,2.45
2018-05-26T17:33:00.946Z,2.67
2018-05-26T17:35:29.933Z,2.70
2018-05-26T17:37:58.238Z,2.73
2018-05-26T17:40:28.073Z,2.80
2018-05-26T17:42:57.447Z,2.90
2018-05-26T17:45:25.660Z,3.00
2018-05-26T17:47:53.935Z,2.57
2018-05-26T17:50:22.234Z,2.77
2018-05-26T17:52:51.342Z,2.40
2018-05-26T17:55:19.591Z,2.50
2018-05-26T17:57:47.830Z,2.57
2018-05-26T18:00:16.843Z,2.93
2018-05-26T18:02:45.871Z,2.70
2018-05-26T18:05:14.084Z,2.90
2018-05-26T18:07:42.375Z,2.60
2018-05-26T18:10:10.611Z,2.53
2018-05-26T18:12:40.371Z,2.80
2018-05-26T18:15:08.639Z,3.03
2018-05-26T18:17:36.838Z,2.87
2018-05-26T18:20:05.109Z,2.97
2018-05-26T18:22:34.151Z,2.67
2018-05-26T18:25:02.383Z,3.23
2018-05-26T18:27:30.648Z,2.70
2018-05-26T18:29:58.883Z,3.20
2018-05-26T18:32:27.149Z,3.10
2018-05-26T18:34:56.145Z,3.43
2018-05-26T18:37:24.409Z,3.40
2018-05-26T18:39:52.655Z,3.27
2018-05-26T18:42:21.682Z,3.97
2018-05-26T18:44:49.913Z,4.10
2018-05-26T18:47:18.167Z,3.77
2018-05-26T18:49:46.407Z,3.40
2018-05-26T18:52:15.423Z,3.90
2018-05-26T18:54:45.011Z,4.37
2018-05-26T18:57:13.267Z,4.33
2018-05-26T18:59:41.515Z,4.80
2018-05-26T19:02:10.561Z,3.60
2018-05-26T19:04:38.778Z,3.67
2018-05-26T19:07:07.033Z,4.13
2018-05-26T19:09:35.287Z,4.33
2018-05-26T19:12:03.551Z,4.30
2018-05-26T19:14:31.807Z,4.40
2018-05-26T19:17:00.063Z,3.77
2018-05-26T19:19:29.068Z,4.00
2018-05-26T19:21:57.313Z,4.93
2018-05-26T19:24:25.608Z,4.20
2018-05-26T19:26:53.813Z,4.00
2018-05-26T19:29:22.067Z,3.83
2018-05-26T19:31:50.303Z,4.17
2018-05-26T19:34:19.285Z,3.93
2018-05-26T19:36:48.351Z,4.07
2018-05-26T19:39:16.602Z,3.70
2018-05-26T19:41:45.611Z,3.53
2018-05-26T19:44:14.633Z,3.77
2018-05-26T19:46:43.623Z,3.93
2018-05-26T19:49:12.646Z,3.87
2018-05-26T19:51:40.887Z,4.00
2018-05-26T19:54:09.910Z,4.43
2018-05-26T19:56:38.159Z,4.67
2018-05-26T19:59:06.443Z,4.20
2018-05-26T20:01:34.678Z,4.63
2018-05-26T20:04:02.939Z,5.93
2018-05-26T20:06:31.146Z,6.07
2018-05-26T20:09:00.194Z,6.30
2018-05-26T20:11:28.443Z,5.40
2018-05-26T20:13:56.702Z,5.50
2018-05-26T20:16:24.939Z,5.83
2018-05-26T20:18:53.960Z,5.13
2018-05-26T20:21:22.963Z,5.10
2018-05-26T20:23:51.989Z,5.47
2018-05-26T20:26:20.185Z,5.53
2018-05-26T20:28:48.489Z,4.90
2018-05-26T20:31:16.741Z,5.30
2018-05-26T20:33:45.763Z,5.87
2018-05-26T20:36:14.007Z,5.57
2018-05-26T20:38:42.246Z,5.53
2018-05-26T20:41:10.506Z,6.00
2018-05-26T20:43:39.557Z,5.93
2018-05-26T20:46:09.118Z,6.03
2018-05-26T20:48:37.382Z,5.90
2018-05-26T20:51:05.631Z,6.07
2018-05-26T20:53:33.866Z,6.03
2018-05-26T20:56:02.128Z,5.83
2018-05-26T20:58:30.358Z,9.63
2018-05-26T21:00:58.625Z,11.07
2018-05-26T21:03:26.837Z,10.10
2018-05-26T21:05:55.897Z,8.57
2018-05-26T21:08:24.133Z,7.63
2018-05-26T21:10:52.393Z,7.87
2018-05-26T21:13:20.623Z,7.60
2018-05-26T21:15:49.655Z,5.97
2018-05-26T21:18:17.920Z,6.60
2018-05-26T21:20:46.135Z,8.07
2018-05-26T21:23:14.378Z,7.10
2018-05-26T21:25:42.708Z,7.17
2018-05-26T21:28:10.883Z,7.70
2018-05-26T21:30:39.890Z,8.07
2018-05-26T21:33:08.126Z,8.07
2018-05-26T21:35:36.345Z,7.43
2018-05-26T21:38:04.619Z,7.80
2018-05-26T21:40:32.875Z,7.27
2018-05-26T21:43:01.155Z,7.40
2018-05-26T21:45:29.423Z,5.80
2018-05-26T21:47:57.689Z,6.50
2018-05-26T21:50:25.963Z,7.57
2018-05-26T21:52:54.165Z,8.13
2018-05-26T21:55:22.424Z,8.60
2018-05-26T21:57:51.473Z,11.40
2018-05-26T22:00:20.514Z,11.27
2018-05-26T22:02:48.803Z,12.17
2018-05-26T22:05:17.989Z,12.13
2018-05-26T22:07:47.736Z,11.13
2018-05-26T22:10:15.986Z,11.00
2018-05-26T22:12:44.999Z,10.23
2018-05-26T22:15:13.963Z,8.47
2018-05-26T22:17:43.042Z,7.57
2018-05-26T22:20:11.306Z,6.53
2018-05-26T22:22:40.329Z,6.27
2018-05-26T22:25:08.572Z,5.97
2018-05-26T22:27:36.819Z,6.07
2018-05-26T22:30:05.082Z,5.50
2018-05-26T22:32:33.358Z,5.57
2018-05-26T22:35:02.422Z,5.57
2018-05-26T22:37:30.632Z,4.93
2018-05-26T22:42:38.013Z,5.53
2018-05-26T22:45:06.264Z,6.93
2018-05-26T22:47:34.527Z,6.40
2018-05-26T22:50:02.773Z,6.83
2018-05-26T22:52:31.035Z,7.27
2018-05-26T22:55:00.046Z,7.70
2018-05-26T22:57:29.067Z,7.40
2018-05-26T22:59:57.297Z,7.63
2018-05-26T23:02:25.526Z,6.73
2018-05-26T23:04:53.811Z,6.93
2018-05-26T23:07:22.838Z,6.60
2018-05-26T23:09:51.074Z,7.17
2018-05-26T23:12:19.362Z,7.27
2018-05-26T23:14:47.596Z,6.87
2018-05-26T23:17:16.617Z,6.17
2018-05-26T23:19:44.858Z,6.30
2018-05-26T23:22:13.110Z,6.37
2018-05-26T23:24:41.355Z,6.40
2018-05-26T23:27:09.607Z,5.93
2018-05-26T23:29:37.861Z,5.93
2018-05-26T23:32:06.098Z,6.30
2018-05-26T23:34:34.342Z,5.23
2018-05-26T23:37:02.600Z,5.77
2018-05-26T23:39:30.839Z,5.33
2018-05-26T23:41:59.104Z,6.10
2018-05-26T23:44:27.318Z,7.03
2018-05-26T23:46:55.612Z,6.70
2018-05-26T23:49:23.824Z,6.60
2018-05-26T23:51:52.129Z,5.97
2018-05-26T23:54:20.382Z,5.37
2018-05-26T23:56:48.632Z,5.33
2018-05-26T23:59:16.879Z,5.40
